createdAt,value
2017-11-30T00:01:02.897Z,10.35
2017-11-30T00:03:31.245Z,8.90
2017-11-30T00:05:59.590Z,8.95
2017-11-30T00:08:27.963Z,7.90
2017-11-30T00:10:56.301Z,7.70
2017-11-30T00:13:24.642Z,9.02
2017-11-30T00:15:52.991Z,9.15
2017-11-30T00:18:21.338Z,9.05
2017-11-30T00:20:49.703Z,8.75
2017-11-30T00:23:18.036Z,9.18
2017-11-30T00:25:46.403Z,10.27
2017-11-30T00:28:14.806Z,9.85
2017-11-30T00:30:43.182Z,10.60
2017-11-30T00:33:11.552Z,9.77
2017-11-30T00:35:39.908Z,10.10
2017-11-30T00:38:08.249Z,9.38
2017-11-30T00:40:36.604Z,10.55
2017-11-30T00:43:16.615Z,8.82
2017-11-30T00:45:44.956Z,9.45
2017-11-30T00:48:13.344Z,8.52
2017-11-30T00:50:41.736Z,8.55
2017-11-30T00:53:10.073Z,7.68
2017-11-30T00:55:38.418Z,8.32
2017-11-30T00:58:06.754Z,9.63
2017-11-30T01:00:35.091Z,7.82
2017-11-30T01:03:03.469Z,9.15
2017-11-30T01:05:31.812Z,8.70
2017-11-30T01:08:00.156Z,8.70
2017-11-30T01:10:28.504Z,8.60
2017-11-30T01:12:56.847Z,8.85
2017-11-30T01:15:25.228Z,8.88
2017-11-30T01:17:53.577Z,8.32
2017-11-30T01:20:21.921Z,9.20
2017-11-30T01:22:50.267Z,8.68
2017-11-30T01:25:18.612Z,8.05
2017-11-30T01:27:47.000Z,8.52
2017-11-30T01:30:15.348Z,8.85
2017-11-30T01:32:43.689Z,9.80
2017-11-30T01:35:12.032Z,8.65
2017-11-30T01:37:40.387Z,8.77
2017-11-30T01:40:08.762Z,8.10
2017-11-30T01:42:37.104Z,8.60
2017-11-30T01:45:05.465Z,8.75
2017-11-30T01:47:33.803Z,7.80
2017-11-30T01:50:02.175Z,7.65
2017-11-30T01:52:30.568Z,8.40
2017-11-30T01:54:58.908Z,8.48
2017-11-30T01:57:27.255Z,8.57
2017-11-30T01:59:55.597Z,9.20
2017-11-30T02:02:23.940Z,8.18
2017-11-30T02:04:52.321Z,8.02
2017-11-30T02:07:20.670Z,7.85
2017-11-30T02:09:49.028Z,8.10
2017-11-30T02:12:17.370Z,9.20
2017-11-30T02:14:45.719Z,7.07
2017-11-30T02:17:14.695Z,8.80
2017-11-30T02:19:43.039Z,7.87
2017-11-30T02:22:11.420Z,8.52
2017-11-30T02:24:39.769Z,8.48
2017-11-30T02:27:08.108Z,7.90
2017-11-30T02:29:36.450Z,8.00
2017-11-30T02:32:04.789Z,7.78
2017-11-30T02:34:33.158Z,7.22
2017-11-30T02:37:01.507Z,7.37
2017-11-30T02:39:29.860Z,7.95
2017-11-30T02:41:58.209Z,7.20
2017-11-30T02:44:26.560Z,7.87
2017-11-30T02:46:54.904Z,7.95
2017-11-30T02:49:23.262Z,7.80
2017-11-30T02:51:51.636Z,8.30
2017-11-30T02:54:20.038Z,8.45
2017-11-30T02:56:48.381Z,8.82
2017-11-30T02:59:16.720Z,8.48
2017-11-30T03:01:45.056Z,8.20
2017-11-30T03:04:13.427Z,6.68
2017-11-30T03:06:41.778Z,7.18
2017-11-30T03:09:10.116Z,6.28
2017-11-30T03:11:38.456Z,7.25
2017-11-30T03:14:06.824Z,6.85
2017-11-30T03:16:35.360Z,9.00
2017-11-30T03:19:03.701Z,8.07
2017-11-30T03:21:32.058Z,7.93
2017-11-30T03:24:00.395Z,8.50
2017-11-30T03:26:28.741Z,8.18
2017-11-30T03:28:57.116Z,8.80
2017-11-30T03:31:25.461Z,10.52
2017-11-30T03:33:53.812Z,9.40
2017-11-30T03:36:22.156Z,8.93
2017-11-30T03:38:50.529Z,9.38
2017-11-30T03:41:18.911Z,7.82
2017-11-30T03:43:47.257Z,7.75
2017-11-30T03:46:15.605Z,9.68
2017-11-30T03:48:43.956Z,8.43
2017-11-30T03:51:12.302Z,9.77
2017-11-30T03:53:40.704Z,8.85
2017-11-30T03:56:09.036Z,8.52
2017-11-30T03:58:37.389Z,10.43
2017-11-30T04:01:05.761Z,10.88
2017-11-30T04:03:34.109Z,14.05
2017-11-30T04:06:02.496Z,14.63
2017-11-30T04:08:30.847Z,14.98
2017-11-30T04:10:59.193Z,14.60
2017-11-30T04:13:27.540Z,13.82
2017-11-30T04:15:55.893Z,14.93
2017-11-30T04:18:24.277Z,20.75
2017-11-30T04:20:52.629Z,21.90
2017-11-30T04:23:20.980Z,22.90
2017-11-30T04:25:49.337Z,17.00
2017-11-30T04:28:17.689Z,13.90
2017-11-30T04:30:46.084Z,15.02
2017-11-30T04:33:14.436Z,16.55
2017-11-30T04:35:42.784Z,16.12
2017-11-30T04:38:11.136Z,15.73
2017-11-30T04:40:39.496Z,13.70
2017-11-30T04:43:07.916Z,13.20
2017-11-30T04:45:36.269Z,15.07
2017-11-30T04:48:04.614Z,16.83
2017-11-30T04:50:32.956Z,17.15
2017-11-30T04:53:01.441Z,13.43
2017-11-30T04:55:29.790Z,12.77
2017-11-30T04:57:58.136Z,12.45
2017-11-30T05:00:26.486Z,13.65
2017-11-30T05:02:54.829Z,14.85
2017-11-30T05:05:23.216Z,15.43
2017-11-30T05:07:51.569Z,16.67
2017-11-30T05:10:19.921Z,15.80
2017-11-30T05:12:48.269Z,13.93
2017-11-30T05:15:16.626Z,14.48
2017-11-30T05:17:45.000Z,12.73
2017-11-30T05:20:13.357Z,13.93
2017-11-30T05:22:41.706Z,12.70
2017-11-30T05:25:10.061Z,14.73
2017-11-30T05:27:38.441Z,12.52
2017-11-30T05:30:06.783Z,12.15
2017-11-30T05:32:35.128Z,11.65
2017-11-30T05:35:03.492Z,12.77
2017-11-30T05:37:31.839Z,12.75
2017-11-30T05:40:00.460Z,12.85
2017-11-30T05:42:28.838Z,15.45
2017-11-30T05:44:57.286Z,14.07
2017-11-30T05:47:25.632Z,14.30
2017-11-30T05:49:54.000Z,12.80
2017-11-30T05:52:22.349Z,14.93
2017-11-30T05:54:50.737Z,16.12
2017-11-30T05:57:19.081Z,14.52
2017-11-30T05:59:47.441Z,14.60
2017-11-30T06:02:15.795Z,13.75
2017-11-30T06:04:44.132Z,13.98
2017-11-30T06:07:12.512Z,13.40
2017-11-30T06:09:40.867Z,14.63
2017-11-30T06:12:09.212Z,13.73
2017-11-30T06:14:37.593Z,12.68
2017-11-30T06:17:05.956Z,11.95
2017-11-30T06:19:34.325Z,12.25
2017-11-30T06:22:02.693Z,13.20
2017-11-30T06:24:31.031Z,13.70
2017-11-30T06:26:59.422Z,13.40
2017-11-30T06:29:27.768Z,13.57
2017-11-30T06:31:56.112Z,15.10
2017-11-30T06:34:24.489Z,13.30
2017-11-30T06:36:56.272Z,13.55
2017-11-30T06:39:24.652Z,15.10
2017-11-30T06:41:53.042Z,16.62
2017-11-30T06:44:21.715Z,21.67
2017-11-30T06:46:50.127Z,18.23
2017-11-30T06:49:18.506Z,18.45
2017-11-30T06:51:46.864Z,18.65
2017-11-30T06:54:22.180Z,19.02
2017-11-30T06:56:50.556Z,18.80
2017-11-30T06:59:18.905Z,20.10
2017-11-30T07:01:47.267Z,17.70
2017-11-30T07:04:15.629Z,17.87
2017-11-30T07:06:44.004Z,18.05
2017-11-30T07:09:12.349Z,17.87
2017-11-30T07:11:40.702Z,17.73
2017-11-30T07:14:09.041Z,17.12
2017-11-30T07:16:37.391Z,15.82
2017-11-30T07:19:05.825Z,18.83
2017-11-30T07:21:34.180Z,17.70
2017-11-30T07:24:02.558Z,17.90
2017-11-30T07:26:30.901Z,17.27
2017-11-30T07:28:59.264Z,19.00
2017-11-30T07:31:27.650Z,17.83
2017-11-30T07:33:55.994Z,17.67
2017-11-30T07:36:24.340Z,16.87
2017-11-30T07:38:52.690Z,14.87
2017-11-30T07:41:21.074Z,15.93
2017-11-30T07:43:49.456Z,16.90
2017-11-30T07:46:17.808Z,17.75
2017-11-30T07:48:46.167Z,15.65
2017-11-30T07:51:14.515Z,17.27
2017-11-30T07:53:42.888Z,14.05
2017-11-30T07:56:11.422Z,15.05
2017-11-30T07:58:39.764Z,15.55
2017-11-30T08:01:08.120Z,15.93
2017-11-30T08:03:36.470Z,15.55
2017-11-30T08:06:04.816Z,13.02
2017-11-30T08:08:33.206Z,13.95
2017-11-30T08:11:01.553Z,11.23
2017-11-30T08:13:29.900Z,8.18
2017-11-30T08:15:58.266Z,8.35
2017-11-30T08:18:26.600Z,8.63
2017-11-30T08:20:54.976Z,7.90
2017-11-30T08:23:23.317Z,7.60
2017-11-30T08:25:51.664Z,8.05
2017-11-30T08:28:20.009Z,10.07
2017-11-30T08:30:48.373Z,11.68
2017-11-30T08:33:16.745Z,8.95
2017-11-30T08:35:45.089Z,12.07
2017-11-30T08:38:13.479Z,12.23
2017-11-30T08:40:41.862Z,10.93
2017-11-30T08:43:10.208Z,13.05
2017-11-30T08:45:38.595Z,12.07
2017-11-30T08:48:06.948Z,11.55
2017-11-30T08:50:35.303Z,11.55
2017-11-30T08:53:03.658Z,10.95
2017-11-30T08:55:32.006Z,11.93
2017-11-30T08:58:00.397Z,12.95
2017-11-30T09:00:28.743Z,13.40
2017-11-30T09:02:57.104Z,12.77
2017-11-30T09:05:25.459Z,10.50
2017-11-30T09:07:53.846Z,10.88
2017-11-30T09:10:22.240Z,10.82
2017-11-30T09:12:50.617Z,11.52
2017-11-30T09:15:18.960Z,10.75
2017-11-30T09:17:47.301Z,10.35
2017-11-30T09:20:15.650Z,10.75
2017-11-30T09:22:44.038Z,10.32
2017-11-30T09:25:12.388Z,9.80
2017-11-30T09:27:40.726Z,9.82
2017-11-30T09:30:09.095Z,8.25
2017-11-30T09:32:37.433Z,10.20
2017-11-30T09:35:05.822Z,10.88
2017-11-30T09:37:34.168Z,11.40
2017-11-30T09:40:02.517Z,7.97
2017-11-30T09:42:30.865Z,8.23
2017-11-30T09:44:59.216Z,8.43
2017-11-30T09:47:27.594Z,7.97
2017-11-30T09:49:55.935Z,9.32
2017-11-30T09:52:24.272Z,8.13
2017-11-30T09:54:52.618Z,7.72
2017-11-30T09:57:21.012Z,8.48
2017-11-30T09:59:49.364Z,7.87
2017-11-30T10:02:17.727Z,9.85
2017-11-30T10:04:46.200Z,7.20
2017-11-30T10:07:14.637Z,8.25
2017-11-30T10:09:42.995Z,7.37
2017-11-30T10:12:11.993Z,8.77
2017-11-30T10:14:40.744Z,8.52
2017-11-30T10:17:09.360Z,7.30
2017-11-30T10:19:38.060Z,7.90
2017-11-30T10:22:06.708Z,9.13
2017-11-30T10:24:35.429Z,12.15
2017-11-30T10:27:04.160Z,9.40
2017-11-30T10:29:32.813Z,9.20
2017-11-30T10:32:01.676Z,9.02
2017-11-30T10:34:30.131Z,9.30
2017-11-30T10:36:58.721Z,7.68
2017-11-30T10:39:27.258Z,7.85
2017-11-30T10:41:56.100Z,7.47
2017-11-30T10:44:24.818Z,5.45
2017-11-30T10:46:53.545Z,5.97
2017-11-30T10:49:22.989Z,5.35
2017-11-30T10:51:51.645Z,5.25
2017-11-30T10:54:20.394Z,5.40
2017-11-30T10:56:49.184Z,5.40
2017-11-30T10:59:17.936Z,5.95
2017-11-30T11:01:46.797Z,6.12
2017-11-30T11:04:15.647Z,7.40
2017-11-30T11:06:44.321Z,7.90
2017-11-30T11:09:12.955Z,6.80
2017-11-30T11:11:41.413Z,7.12
2017-11-30T11:14:09.821Z,7.00
2017-11-30T11:16:38.187Z,8.05
2017-11-30T11:19:06.781Z,8.10
2017-11-30T11:21:35.548Z,9.23
2017-11-30T11:24:04.401Z,9.20
2017-11-30T11:26:32.990Z,9.40
2017-11-30T11:29:01.675Z,9.80
2017-11-30T11:31:30.337Z,7.90
2017-11-30T11:33:59.144Z,10.07
2017-11-30T11:36:28.234Z,9.63
2017-11-30T11:38:57.882Z,10.38
2017-11-30T11:41:26.510Z,11.82
2017-11-30T11:43:55.255Z,10.80
2017-11-30T11:46:23.922Z,13.07
2017-11-30T11:48:52.353Z,12.55
2017-11-30T11:51:20.705Z,9.77
2017-11-30T11:53:49.381Z,10.50
2017-11-30T11:56:19.094Z,11.20
2017-11-30T11:58:47.775Z,10.82
2017-11-30T12:01:16.589Z,10.65
2017-11-30T12:03:45.249Z,10.00
2017-11-30T12:06:14.158Z,9.18
2017-11-30T12:08:42.914Z,11.15
2017-11-30T12:11:11.605Z,10.40
2017-11-30T12:13:40.485Z,9.57
2017-11-30T12:16:09.213Z,8.88
2017-11-30T12:18:37.965Z,9.00
2017-11-30T12:21:06.837Z,9.20
2017-11-30T12:23:35.730Z,11.90
2017-11-30T12:26:04.505Z,9.70
2017-11-30T12:28:33.099Z,10.68
2017-11-30T12:31:01.660Z,11.20
2017-11-30T12:33:30.458Z,9.98
2017-11-30T12:35:59.088Z,10.98
2017-11-30T12:38:27.986Z,10.32
2017-11-30T12:40:56.622Z,11.45
2017-11-30T12:43:25.197Z,10.10
2017-11-30T12:45:53.788Z,11.80
2017-11-30T12:48:22.141Z,11.55
2017-11-30T12:50:50.519Z,7.60
2017-11-30T12:53:18.882Z,10.90
2017-11-30T12:55:47.249Z,10.23
2017-11-30T12:58:15.604Z,10.25
2017-11-30T13:00:44.010Z,8.70
2017-11-30T13:03:12.528Z,9.90
2017-11-30T13:05:40.974Z,10.00
2017-11-30T13:08:09.359Z,11.20
2017-11-30T13:10:37.702Z,9.88
2017-11-30T13:13:06.065Z,10.98
2017-11-30T13:15:34.622Z,10.07
2017-11-30T13:18:03.083Z,8.73
2017-11-30T13:20:31.454Z,11.15
2017-11-30T13:22:59.847Z,9.55
2017-11-30T13:25:28.199Z,9.65
2017-11-30T13:27:56.572Z,9.15
2017-11-30T13:30:24.924Z,10.68
2017-11-30T13:32:53.271Z,10.65
2017-11-30T13:35:21.751Z,8.50
2017-11-30T13:37:50.100Z,8.43
2017-11-30T13:40:18.469Z,8.00
2017-11-30T13:42:46.992Z,6.97
2017-11-30T13:45:15.599Z,7.60
2017-11-30T13:47:43.971Z,8.02
2017-11-30T13:50:12.320Z,7.37
2017-11-30T13:52:43.574Z,8.02
2017-11-30T13:55:11.962Z,6.47
2017-11-30T13:57:40.547Z,6.80
2017-11-30T14:00:09.028Z,5.68
2017-11-30T14:02:37.371Z,6.90
2017-11-30T14:05:05.726Z,7.57
2017-11-30T14:07:34.075Z,6.25
2017-11-30T14:10:02.440Z,6.32
2017-11-30T14:12:30.815Z,6.43
2017-11-30T14:14:59.170Z,6.05
2017-11-30T14:17:27.512Z,5.28
2017-11-30T14:19:55.858Z,5.85
2017-11-30T14:22:24.209Z,5.82
2017-11-30T14:24:52.574Z,5.47
2017-11-30T14:27:20.928Z,5.65
2017-11-30T14:29:49.893Z,5.57
2017-11-30T14:32:18.559Z,5.70
2017-11-30T14:34:48.180Z,5.80
2017-11-30T14:37:17.925Z,6.30
2017-11-30T14:39:47.124Z,6.87
2017-11-30T14:42:17.518Z,6.45
2017-11-30T14:44:46.510Z,5.18
2017-11-30T14:47:15.312Z,5.72
2017-11-30T14:49:45.855Z,6.70
2017-11-30T14:52:14.620Z,6.30
2017-11-30T14:54:43.454Z,6.28
2017-11-30T14:57:14.046Z,6.75
2017-11-30T14:59:43.625Z,7.35
2017-11-30T15:02:12.087Z,6.15
2017-11-30T15:04:40.494Z,7.10
2017-11-30T15:07:08.921Z,7.15
2017-11-30T15:09:37.266Z,8.25
2017-11-30T15:12:05.603Z,6.65
2017-11-30T15:14:33.974Z,8.85
2017-11-30T15:17:02.314Z,7.50
2017-11-30T15:19:31.635Z,7.60
2017-11-30T15:21:59.986Z,6.82
2017-11-30T15:24:28.327Z,7.07
2017-11-30T15:26:56.667Z,7.00
2017-11-30T15:29:25.002Z,6.78
2017-11-30T15:31:53.477Z,6.87
2017-11-30T15:34:21.830Z,7.20
2017-11-30T15:36:50.175Z,7.50
2017-11-30T15:39:18.531Z,7.05
2017-11-30T15:41:46.896Z,7.80
2017-11-30T15:44:15.268Z,7.72
2017-11-30T15:46:43.609Z,6.32
2017-11-30T15:49:11.950Z,6.53
2017-11-30T15:51:40.294Z,7.72
2017-11-30T15:54:08.630Z,7.12
2017-11-30T15:56:37.020Z,8.20
2017-11-30T15:59:05.362Z,8.02
2017-11-30T16:01:33.707Z,9.27
2017-11-30T16:04:02.091Z,8.38
2017-11-30T16:06:33.664Z,7.60
2017-11-30T16:09:05.314Z,7.53
2017-11-30T16:11:35.291Z,9.40
2017-11-30T16:14:04.226Z,8.40
2017-11-30T16:16:32.585Z,5.80
2017-11-30T16:19:03.064Z,7.75
2017-11-30T16:21:31.411Z,7.15
2017-11-30T16:23:59.762Z,8.50
2017-11-30T16:26:29.166Z,8.43
2017-11-30T16:28:57.511Z,8.48
2017-11-30T16:31:26.315Z,7.00
2017-11-30T16:33:54.654Z,7.15
2017-11-30T16:36:24.640Z,6.90
2017-11-30T16:38:53.005Z,5.28
2017-11-30T16:41:21.395Z,5.22
2017-11-30T16:43:50.624Z,4.62
2017-11-30T16:46:20.556Z,4.50
2017-11-30T16:48:49.783Z,4.20
2017-11-30T16:51:18.180Z,5.20
2017-11-30T16:53:47.602Z,5.15
2017-11-30T16:56:23.135Z,6.43
2017-11-30T16:58:53.090Z,5.25
2017-11-30T17:01:23.012Z,6.05
2017-11-30T17:03:53.292Z,5.40
2017-11-30T17:06:23.628Z,4.78
2017-11-30T17:08:53.718Z,4.70
2017-11-30T17:11:25.711Z,4.62
2017-11-30T17:13:58.583Z,3.70
2017-11-30T17:16:28.361Z,4.80
2017-11-30T17:18:58.282Z,4.57
2017-11-30T17:21:28.448Z,4.62
2017-11-30T17:23:58.748Z,4.45
2017-11-30T17:26:29.076Z,5.05
2017-11-30T17:29:00.392Z,5.78
2017-11-30T17:31:31.670Z,5.65
2017-11-30T17:34:00.286Z,5.57
2017-11-30T17:36:28.750Z,5.45
2017-11-30T17:38:57.095Z,5.65
2017-11-30T17:41:25.713Z,7.35
2017-11-30T17:43:54.397Z,6.03
2017-11-30T17:46:24.307Z,7.75
2017-11-30T17:48:54.980Z,7.18
2017-11-30T17:51:25.168Z,7.15
2017-11-30T17:53:55.277Z,8.70
2017-11-30T17:56:24.054Z,6.95
2017-11-30T17:58:55.757Z,7.72
2017-11-30T18:01:24.793Z,8.88
2017-11-30T18:03:53.509Z,8.40
2017-11-30T18:06:24.725Z,11.25
2017-11-30T18:08:54.284Z,18.20
2017-11-30T18:11:23.082Z,32.25
2017-11-30T18:13:52.705Z,15.63
2017-11-30T18:16:23.169Z,46.45
2017-11-30T18:18:56.154Z,18.65
2017-11-30T18:21:27.245Z,14.95
2017-11-30T18:23:57.992Z,11.20
2017-11-30T18:26:28.216Z,11.63
2017-11-30T18:28:57.613Z,12.20
2017-11-30T18:31:28.233Z,12.00
2017-11-30T18:34:00.554Z,12.52
2017-11-30T18:36:32.538Z,10.23
2017-11-30T18:39:02.832Z,10.43
2017-11-30T18:41:34.143Z,11.52
2017-11-30T18:44:04.620Z,12.02
2017-11-30T18:46:36.061Z,10.57
2017-11-30T18:49:06.565Z,10.63
2017-11-30T18:51:37.684Z,10.40
2017-11-30T18:54:07.377Z,11.02
2017-11-30T18:56:38.547Z,10.68
2017-11-30T18:59:08.110Z,11.15
2017-11-30T19:01:36.865Z,11.65
2017-11-30T19:04:11.493Z,11.30
2017-11-30T19:06:40.776Z,11.38
2017-11-30T19:09:09.416Z,10.68
2017-11-30T19:11:37.821Z,9.60
2017-11-30T19:14:06.179Z,9.77
2017-11-30T19:16:34.663Z,9.48
2017-11-30T19:19:03.010Z,10.73
2017-11-30T19:21:31.371Z,13.10
2017-11-30T19:24:00.020Z,11.18
2017-11-30T19:26:28.695Z,11.68
2017-11-30T19:28:58.355Z,28.83
2017-11-30T19:31:28.480Z,11.40
2017-11-30T19:33:57.356Z,9.10
2017-11-30T19:36:27.472Z,10.13
2017-11-30T19:38:57.427Z,19.87
2017-11-30T19:41:31.619Z,13.35
2017-11-30T19:44:01.390Z,10.88
2017-11-30T19:46:38.498Z,11.32
2017-11-30T19:51:45.612Z,11.20
2017-11-30T19:54:17.948Z,11.25
2017-11-30T19:56:57.280Z,12.02
2017-11-30T19:59:30.976Z,14.60
2017-11-30T20:02:11.416Z,11.10
2017-11-30T20:04:49.712Z,10.90
2017-11-30T20:07:21.080Z,12.48
2017-11-30T20:10:00.254Z,12.77
2017-11-30T20:12:30.615Z,12.48
2017-11-30T20:17:39.630Z,13.82
2017-11-30T20:20:19.016Z,12.10
2017-11-30T20:25:25.921Z,11.77
2017-11-30T20:28:11.615Z,11.70
2017-11-30T20:30:42.913Z,11.50
2017-11-30T20:33:19.847Z,11.10
2017-11-30T20:35:56.076Z,11.63
2017-11-30T20:38:27.410Z,11.10
2017-11-30T20:43:39.756Z,9.38
2017-11-30T20:46:12.551Z,10.52
2017-11-30T20:48:45.313Z,9.25
2017-11-30T20:51:13.951Z,10.90
2017-11-30T20:53:42.659Z,11.23
2017-11-30T20:56:11.175Z,10.27
2017-11-30T20:58:39.524Z,9.80
2017-11-30T21:01:07.980Z,10.00
2017-11-30T21:03:38.657Z,9.75
2017-11-30T21:06:07.154Z,8.75
2017-11-30T21:08:57.139Z,8.88
2017-11-30T21:11:29.416Z,10.00
2017-11-30T21:13:59.316Z,10.07
2017-11-30T21:16:28.911Z,10.70
2017-11-30T21:19:01.882Z,10.25
2017-11-30T21:21:35.915Z,10.07
2017-11-30T21:24:04.558Z,9.73
2017-11-30T21:26:38.832Z,9.90
2017-11-30T21:29:12.187Z,9.23
2017-11-30T21:31:46.384Z,9.40
2017-11-30T21:34:19.977Z,8.85
2017-11-30T21:39:33.713Z,7.85
2017-11-30T21:42:13.348Z,7.72
2017-11-30T21:44:48.647Z,7.15
2017-11-30T21:47:23.302Z,7.15
2017-11-30T21:49:58.268Z,6.85
2017-11-30T21:52:29.819Z,6.47
2017-11-30T21:55:09.058Z,6.90
2017-11-30T21:57:40.426Z,6.20
2017-11-30T22:00:14.323Z,6.10
2017-11-30T22:02:46.305Z,5.22
2017-11-30T22:05:19.357Z,5.97
2017-11-30T22:07:51.117Z,5.72
2017-11-30T22:10:20.628Z,5.70
2017-11-30T22:12:57.898Z,5.28
2017-11-30T22:15:28.036Z,5.72
2017-11-30T22:17:57.257Z,5.32
2017-11-30T22:20:25.622Z,5.85
2017-11-30T22:22:54.156Z,5.28
2017-11-30T22:25:22.621Z,5.50
2017-11-30T22:27:51.188Z,5.75
2017-11-30T22:30:19.531Z,6.20
2017-11-30T22:32:47.868Z,5.62
2017-11-30T22:35:16.243Z,6.10
2017-11-30T22:37:44.633Z,6.25
2017-11-30T22:40:13.218Z,5.72
2017-11-30T22:42:41.571Z,6.05
2017-11-30T22:45:09.926Z,6.50
2017-11-30T22:47:38.802Z,6.72
2017-11-30T22:50:07.213Z,6.22
2017-11-30T22:52:35.686Z,7.60
2017-11-30T22:55:04.207Z,7.75
2017-11-30T22:57:32.878Z,7.07
2017-11-30T23:00:01.224Z,8.38
2017-11-30T23:02:29.566Z,8.50
2017-11-30T23:04:58.043Z,8.10
2017-11-30T23:07:26.393Z,8.60
2017-11-30T23:09:54.766Z,8.88
2017-11-30T23:12:23.102Z,8.15
2017-11-30T23:14:51.464Z,7.72
2017-11-30T23:17:19.822Z,8.95
2017-11-30T23:19:48.162Z,9.48
2017-11-30T23:22:16.537Z,8.85
2017-11-30T23:24:44.884Z,8.13
2017-11-30T23:27:13.230Z,8.35
2017-11-30T23:29:41.572Z,9.15
2017-11-30T23:32:09.916Z,7.85
2017-11-30T23:34:38.292Z,7.70
2017-11-30T23:37:06.631Z,8.68
2017-11-30T23:39:34.985Z,8.20
2017-11-30T23:42:03.319Z,9.02
2017-11-30T23:44:31.658Z,8.07
2017-11-30T23:47:00.032Z,8.15
2017-11-30T23:49:28.378Z,8.98
2017-11-30T23:51:56.759Z,8.60
2017-11-30T23:54:25.112Z,8.60
2017-11-30T23:56:53.447Z,8.35
2017-11-30T23:59:21.916Z,9.02
